createdAt,value
2019-05-10T00:00:37.307Z,138.80
2019-05-10T00:03:07.093Z,132.83
2019-05-10T00:05:37.081Z,134.67
2019-05-10T00:11:23.028Z,132.13
2019-05-10T00:17:08.042Z,135.10
2019-05-10T00:22:40.696Z,131.53
2019-05-10T00:25:08.908Z,129.93
2019-05-10T00:30:53.453Z,132.13
2019-05-10T00:36:26.095Z,130.03
2019-05-10T00:42:10.378Z,132.40
2019-05-10T00:44:39.847Z,135.73
2019-05-10T00:50:23.016Z,129.63
2019-05-10T00:56:07.748Z,126.80
2019-05-10T01:01:51.754Z,130.20
2019-05-10T01:04:19.954Z,132.63
2019-05-10T01:09:52.192Z,132.43
2019-05-10T01:15:35.608Z,134.30
2019-05-10T01:18:03.907Z,126.87
2019-05-10T01:23:47.929Z,132.30
2019-05-10T01:29:44.111Z,129.03
2019-05-10T01:32:12.698Z,134.47
2019-05-10T01:34:41.136Z,131.63
2019-05-10T01:40:24.956Z,136.10
2019-05-10T01:45:59.236Z,129.10
2019-05-10T01:48:27.576Z,134.70
2019-05-10T01:53:59.776Z,133.00
2019-05-10T01:56:28.076Z,132.70
2019-05-10T02:02:00.773Z,136.97
2019-05-10T02:07:44.548Z,137.43
2019-05-10T02:10:13.001Z,140.73
2019-05-10T02:15:46.088Z,143.27
2019-05-10T02:18:14.345Z,141.13
2019-05-10T02:23:58.011Z,132.37
2019-05-10T02:29:31.108Z,135.53
2019-05-10T02:35:14.972Z,140.23
2019-05-10T02:37:43.305Z,140.90
2019-05-10T02:40:12.801Z,138.87
2019-05-10T02:42:41.169Z,134.50
2019-05-10T02:48:25.115Z,137.33
2019-05-10T02:50:53.509Z,138.43
2019-05-10T02:53:21.912Z,140.67
2019-05-10T02:55:50.354Z,139.73
2019-05-10T03:01:36.210Z,140.23
2019-05-10T03:04:04.557Z,137.73
2019-05-10T03:09:50.180Z,133.10
2019-05-10T03:15:35.531Z,140.33
2019-05-10T03:21:19.826Z,134.27
2019-05-10T03:27:03.912Z,138.03
2019-05-10T03:29:32.387Z,137.73
2019-05-10T03:32:00.649Z,136.00
2019-05-10T03:34:29.083Z,137.87
2019-05-10T03:36:57.406Z,137.77
2019-05-10T03:42:40.691Z,136.63
2019-05-10T03:48:25.308Z,138.07
2019-05-10T03:54:09.314Z,133.37
2019-05-10T03:56:37.524Z,136.93
2019-05-10T03:59:05.997Z,137.20
2019-05-10T04:01:34.283Z,140.07
2019-05-10T04:04:03.091Z,146.70
2019-05-10T04:06:31.837Z,137.90
2019-05-10T04:12:16.938Z,141.37
2019-05-10T04:18:12.846Z,140.47
2019-05-10T04:20:41.197Z,143.77
2019-05-10T04:26:25.624Z,138.93
2019-05-10T04:28:56.966Z,142.53
2019-05-10T04:31:25.312Z,136.07
2019-05-10T04:33:53.493Z,134.63
2019-05-10T04:36:21.648Z,144.00
2019-05-10T04:38:50.109Z,138.80
2019-05-10T04:41:18.393Z,137.17
2019-05-10T04:43:46.721Z,143.67
2019-05-10T04:46:16.334Z,139.80
2019-05-10T04:48:44.726Z,143.93
2019-05-10T04:51:12.890Z,139.50
2019-05-10T04:53:41.183Z,144.10
2019-05-10T04:56:09.397Z,135.23
2019-05-10T04:58:37.763Z,140.80
2019-05-10T05:01:05.985Z,147.63
2019-05-10T05:03:34.222Z,145.27
2019-05-10T05:06:02.601Z,138.27
2019-05-10T05:08:30.833Z,142.00
2019-05-10T05:10:59.137Z,140.63
2019-05-10T05:13:27.430Z,143.87
2019-05-10T05:15:55.750Z,143.47
2019-05-10T05:18:24.097Z,142.97
2019-05-10T05:20:52.375Z,134.07
2019-05-10T05:23:20.768Z,141.07
2019-05-10T05:25:49.126Z,136.80
2019-05-10T05:28:18.516Z,143.10
2019-05-10T05:30:47.368Z,140.03
2019-05-10T05:33:15.714Z,143.63
2019-05-10T05:35:43.891Z,137.13
2019-05-10T05:38:12.196Z,140.13
2019-05-10T05:40:40.473Z,144.37
2019-05-10T05:43:09.915Z,141.87
2019-05-10T05:45:38.451Z,147.27
2019-05-10T05:48:06.740Z,143.83
2019-05-10T05:50:34.978Z,146.50
2019-05-10T05:53:03.201Z,138.53
2019-05-10T05:55:32.274Z,147.17
2019-05-10T05:58:04.756Z,144.47
2019-05-10T06:00:30.788Z,146.10
2019-05-10T06:02:59.122Z,148.00
2019-05-10T06:05:34.187Z,149.03
2019-05-10T06:07:57.277Z,145.40
2019-05-10T06:10:25.664Z,150.80
2019-05-10T06:12:54.073Z,147.93
2019-05-10T06:15:22.992Z,152.97
2019-05-10T06:17:57.039Z,152.43
2019-05-10T06:20:22.420Z,148.87
2019-05-10T06:23:05.540Z,144.53
2019-05-10T06:25:38.086Z,150.73
2019-05-10T06:27:50.601Z,143.27
2019-05-10T06:30:19.010Z,146.43
2019-05-10T06:32:47.315Z,147.27
2019-05-10T06:35:19.457Z,147.80
2019-05-10T06:37:45.694Z,146.33
2019-05-10T06:40:13.999Z,147.97
2019-05-10T06:42:42.341Z,142.97
2019-05-10T06:45:14.717Z,149.17
2019-05-10T06:47:47.131Z,151.07
2019-05-10T06:50:11.136Z,144.40
2019-05-10T06:52:39.489Z,145.00
2019-05-10T06:55:07.997Z,143.27
2019-05-10T06:57:37.648Z,144.93
2019-05-10T07:00:08.097Z,149.73
2019-05-10T07:02:36.782Z,140.00
2019-05-10T07:05:05.591Z,144.63
2019-05-10T07:07:44.184Z,135.77
2019-05-10T07:10:15.801Z,141.83
2019-05-10T07:12:36.391Z,136.33
2019-05-10T07:15:06.342Z,140.57
2019-05-10T07:17:41.392Z,139.73
2019-05-10T07:20:06.287Z,139.27
2019-05-10T07:22:34.643Z,140.03
2019-05-10T07:25:07.185Z,139.73
2019-05-10T07:27:36.752Z,142.50
2019-05-10T07:30:03.886Z,140.10
2019-05-10T07:32:32.134Z,143.10
2019-05-10T07:35:01.130Z,143.63
2019-05-10T07:37:29.742Z,144.93
2019-05-10T07:39:58.010Z,139.93
2019-05-10T07:42:26.524Z,141.27
2019-05-10T07:44:54.920Z,136.67
2019-05-10T07:47:24.028Z,139.57
2019-05-10T07:49:53.158Z,139.60
2019-05-10T07:52:21.393Z,142.03
2019-05-10T07:54:49.677Z,135.00
2019-05-10T07:57:18.504Z,138.30
2019-05-10T07:59:50.641Z,140.43
2019-05-10T08:02:18.147Z,142.93
2019-05-10T08:04:46.432Z,141.60
2019-05-10T08:07:14.749Z,138.03
2019-05-10T08:09:45.240Z,139.17
2019-05-10T08:12:13.175Z,142.27
2019-05-10T08:14:44.385Z,136.87
2019-05-10T08:17:11.427Z,134.80
2019-05-10T08:19:40.818Z,135.53
2019-05-10T08:22:09.458Z,137.37
2019-05-10T08:24:37.861Z,142.50
2019-05-10T08:27:11.641Z,143.43
2019-05-10T08:29:36.008Z,139.07
2019-05-10T08:32:05.584Z,135.27
2019-05-10T08:34:35.523Z,138.83
2019-05-10T08:37:04.008Z,138.87
2019-05-10T08:39:43.891Z,137.73
2019-05-10T08:42:13.542Z,134.07
2019-05-10T08:44:32.885Z,139.13
2019-05-10T08:47:02.253Z,134.77
2019-05-10T08:49:41.824Z,136.87
2019-05-10T08:52:02.889Z,135.20
2019-05-10T08:54:32.826Z,134.35
2019-05-10T08:57:05.207Z,137.03
2019-05-10T08:59:31.267Z,135.40
2019-05-10T09:02:01.934Z,133.12
2019-05-10T09:04:33.438Z,134.80
2019-05-10T09:06:59.967Z,140.57
2019-05-10T09:09:33.800Z,138.47
2019-05-10T09:12:04.269Z,154.33
2019-05-10T09:14:29.357Z,144.27
2019-05-10T09:17:03.496Z,136.80
2019-05-10T09:19:39.628Z,142.30
2019-05-10T09:21:57.716Z,135.93
2019-05-10T09:24:26.115Z,136.43
2019-05-10T09:26:56.933Z,141.57
2019-05-10T09:29:27.429Z,141.63
2019-05-10T09:31:54.522Z,136.50
2019-05-10T09:34:25.971Z,143.30
2019-05-10T09:36:53.083Z,137.43
2019-05-10T09:39:24.854Z,142.17
2019-05-10T09:41:52.793Z,135.30
2019-05-10T09:44:22.879Z,137.65
2019-05-10T09:46:52.453Z,139.43
2019-05-10T09:49:23.248Z,133.13
2019-05-10T09:54:56.982Z,140.73
2019-05-10T09:57:27.711Z,144.20
2019-05-10T09:59:57.215Z,140.63
2019-05-10T10:02:32.785Z,142.40
2019-05-10T10:04:58.582Z,138.17
2019-05-10T10:07:29.316Z,140.00
2019-05-10T10:09:57.053Z,139.40
2019-05-10T10:12:25.537Z,141.07
2019-05-10T10:14:54.037Z,142.27
2019-05-10T10:17:22.275Z,147.43
2019-05-10T10:19:50.730Z,145.67
2019-05-10T10:25:40.595Z,139.73
2019-05-10T10:28:08.255Z,141.07
2019-05-10T10:30:37.437Z,150.53
2019-05-10T10:33:11.731Z,146.77
2019-05-10T10:35:37.879Z,135.27
2019-05-10T10:38:08.145Z,134.83
2019-05-10T10:40:44.351Z,139.30
2019-05-10T10:43:07.433Z,139.70
2019-05-10T10:45:37.731Z,151.73
2019-05-10T10:48:08.472Z,140.60
2019-05-10T10:50:36.868Z,138.87
2019-05-10T10:53:07.788Z,143.63
2019-05-10T10:55:39.392Z,152.40
2019-05-10T10:58:07.278Z,138.93
2019-05-10T11:00:38.814Z,142.33
2019-05-10T11:03:06.028Z,147.10
2019-05-10T11:05:34.469Z,138.87
2019-05-10T11:08:02.780Z,139.60
2019-05-10T11:10:31.753Z,141.97
2019-05-10T11:13:02.900Z,141.73
2019-05-10T11:15:35.586Z,143.33
2019-05-10T11:18:00.532Z,138.77
2019-05-10T11:20:31.540Z,146.43
2019-05-10T11:22:59.145Z,146.33
2019-05-10T11:25:27.591Z,151.50
2019-05-10T11:27:58.596Z,144.00
2019-05-10T11:30:26.921Z,144.37
2019-05-10T11:32:55.376Z,138.05
2019-05-10T11:35:28.403Z,144.45
2019-05-10T11:37:53.610Z,138.52
2019-05-10T11:40:29.844Z,145.47
2019-05-10T11:42:53.339Z,140.40
2019-05-10T11:45:26.210Z,149.62
2019-05-10T11:47:56.764Z,143.20
2019-05-10T11:50:31.293Z,142.20
2019-05-10T11:52:51.698Z,139.92
2019-05-10T11:55:21.645Z,147.10
2019-05-10T11:58:01.527Z,141.35
2019-05-10T12:00:28.397Z,139.15
2019-05-10T12:03:07.407Z,141.88
2019-05-10T12:05:26.713Z,140.35
2019-05-10T12:07:54.609Z,139.10
2019-05-10T12:15:25.312Z,136.37
2019-05-10T12:17:59.156Z,137.20
2019-05-10T12:20:38.545Z,143.62
2019-05-10T12:22:54.041Z,143.62
2019-05-10T12:25:42.076Z,138.32
2019-05-10T12:26:19.411Z,141.65
2019-05-10T12:26:31.162Z,132.10
2019-05-10T12:27:52.668Z,139.95
2019-05-10T12:30:21.578Z,152.53
2019-05-10T12:36:12.997Z,145.35
2019-05-10T12:38:38.030Z,147.50
2019-05-10T12:41:05.810Z,144.00
2019-05-10T12:43:37.131Z,140.00
2019-05-10T12:46:05.517Z,141.73
2019-05-10T12:48:35.891Z,144.25
2019-05-10T12:54:23.718Z,145.12
2019-05-10T12:56:50.349Z,139.85
2019-05-10T12:59:18.644Z,146.28
2019-05-10T13:01:47.033Z,142.13
2019-05-10T13:04:16.944Z,148.55
2019-05-10T13:06:45.410Z,149.47
2019-05-10T13:09:13.785Z,144.07
2019-05-10T13:11:42.134Z,140.65
2019-05-10T13:14:10.735Z,144.30
2019-05-10T13:16:40.114Z,153.82
2019-05-10T13:19:08.370Z,139.25
2019-05-10T13:21:36.791Z,150.87
2019-05-10T13:24:05.149Z,144.80
2019-05-10T13:26:33.477Z,138.35
2019-05-10T13:29:07.145Z,145.45
2019-05-10T13:31:31.879Z,142.72
2019-05-10T13:34:00.093Z,142.32
2019-05-10T13:36:30.557Z,148.97
2019-05-10T13:38:58.352Z,139.25
2019-05-10T13:41:26.731Z,148.25
2019-05-10T13:43:58.758Z,133.90
2019-05-10T13:46:25.236Z,151.63
2019-05-10T13:52:20.589Z,149.63
2019-05-10T13:54:48.899Z,136.27
2019-05-10T13:57:17.278Z,142.37
2019-05-10T13:59:49.083Z,144.73
2019-05-10T14:05:32.377Z,143.17
2019-05-10T14:08:00.630Z,136.07
2019-05-10T14:10:29.081Z,146.37
2019-05-10T14:13:02.643Z,138.50
2019-05-10T14:15:27.236Z,146.53
2019-05-10T14:17:55.510Z,139.90
2019-05-10T14:20:27.566Z,148.17
2019-05-10T14:22:58.351Z,144.77
2019-05-10T14:25:29.622Z,144.50
2019-05-10T14:27:55.911Z,141.30
2019-05-10T14:30:24.303Z,138.63
2019-05-10T14:32:52.539Z,135.30
2019-05-10T14:35:22.674Z,142.20
2019-05-10T14:37:50.882Z,114.82
2019-05-10T14:43:34.873Z,160.12
2019-05-10T14:46:03.203Z,133.75
2019-05-10T14:48:35.272Z,142.18
2019-05-10T14:54:17.479Z,145.35
2019-05-10T14:56:45.881Z,137.82
2019-05-10T15:02:22.876Z,142.80
2019-05-10T15:08:04.209Z,135.60
2019-05-10T15:13:48.129Z,135.35
2019-05-10T15:19:32.866Z,145.55
2019-05-10T15:25:06.088Z,138.77
2019-05-10T15:27:34.667Z,145.07
2019-05-10T15:30:05.999Z,143.00
2019-05-10T15:32:33.970Z,139.95
2019-05-10T15:35:07.154Z,141.12
2019-05-10T15:37:32.211Z,139.90
2019-05-10T15:40:05.673Z,136.55
2019-05-10T15:42:35.982Z,148.30
2019-05-10T15:45:05.232Z,146.63
2019-05-10T15:47:30.850Z,140.95
2019-05-10T15:49:59.994Z,141.77
2019-05-10T15:52:29.176Z,144.68
2019-05-10T15:54:57.494Z,142.00
2019-05-10T15:57:25.747Z,127.78
2019-05-10T15:59:56.589Z,124.55
2019-05-10T16:02:24.084Z,21.73
2019-05-10T16:04:52.541Z,124.58
2019-05-10T16:07:20.914Z,142.30
2019-05-10T16:09:49.914Z,132.72
2019-05-10T16:12:19.219Z,145.80
2019-05-10T16:14:47.631Z,139.62
2019-05-10T16:17:17.520Z,141.20
2019-05-10T16:19:50.989Z,146.02
2019-05-10T16:22:17.161Z,143.22
2019-05-10T16:24:45.480Z,142.15
2019-05-10T16:27:13.851Z,143.97
2019-05-10T16:29:42.159Z,146.25
2019-05-10T16:32:10.495Z,139.45
2019-05-10T16:34:39.030Z,145.62
2019-05-10T16:37:07.454Z,143.90
2019-05-10T16:39:35.723Z,134.95
2019-05-10T16:42:04.060Z,124.82
2019-05-10T16:44:32.481Z,136.62
2019-05-10T16:47:00.769Z,141.65
2019-05-10T16:49:29.122Z,143.28
2019-05-10T16:51:57.323Z,133.37
2019-05-10T16:54:27.384Z,120.10
2019-05-10T16:56:59.594Z,139.43
2019-05-10T16:59:29.660Z,139.70
2019-05-10T17:02:03.161Z,137.12
2019-05-10T17:04:25.938Z,134.65
2019-05-10T17:06:56.565Z,144.75
2019-05-10T17:09:24.154Z,141.20
2019-05-10T17:11:52.631Z,138.37
2019-05-10T17:14:20.875Z,143.72
2019-05-10T17:20:13.712Z,143.70
2019-05-10T17:25:53.918Z,140.73
2019-05-10T17:28:22.157Z,141.12
2019-05-10T17:30:50.483Z,143.87
2019-05-10T17:33:18.994Z,121.17
2019-05-10T17:35:47.520Z,122.22
2019-05-10T17:38:16.295Z,144.15
2019-05-10T17:40:47.560Z,143.20
2019-05-10T17:43:20.654Z,147.37
2019-05-10T17:49:01.586Z,142.80
2019-05-10T17:51:30.061Z,146.00
2019-05-10T17:57:16.734Z,148.33
2019-05-10T18:02:51.659Z,169.83
2019-05-10T18:08:23.843Z,146.57
2019-05-10T18:10:57.382Z,141.30
2019-05-10T18:13:22.271Z,144.43
2019-05-10T18:19:05.744Z,144.80
2019-05-10T18:21:34.157Z,135.67
2019-05-10T18:27:07.292Z,146.77
2019-05-10T18:32:51.264Z,139.37
2019-05-10T18:35:19.652Z,142.43
2019-05-10T18:37:53.713Z,143.63
2019-05-10T18:40:25.217Z,144.10
2019-05-10T18:42:57.676Z,138.13
2019-05-10T18:45:23.313Z,136.70
2019-05-10T18:51:09.101Z,137.97
2019-05-10T18:56:53.485Z,134.20
2019-05-10T18:59:21.701Z,127.40
2019-05-10T19:05:05.841Z,135.97
2019-05-10T19:10:38.251Z,141.47
2019-05-10T19:16:26.152Z,140.00
2019-05-10T19:22:10.473Z,149.60
2019-05-10T19:24:39.741Z,135.17
2019-05-10T19:27:09.305Z,137.30
2019-05-10T19:29:38.732Z,151.97
2019-05-10T19:35:24.447Z,139.93
2019-05-10T19:41:08.722Z,132.73
2019-05-10T19:43:37.124Z,136.10
2019-05-10T19:49:21.346Z,161.93
2019-05-10T19:55:19.368Z,137.23
2019-05-10T19:57:52.882Z,147.10
2019-05-10T20:03:20.707Z,145.33
2019-05-10T20:05:49.302Z,75.43
2019-05-10T20:11:22.064Z,138.37
2019-05-10T20:17:06.445Z,137.47
2019-05-10T20:19:34.805Z,138.17
2019-05-10T20:22:05.209Z,138.87
2019-05-10T20:24:33.515Z,144.40
2019-05-10T20:27:01.823Z,143.17
2019-05-10T20:29:30.318Z,128.63
2019-05-10T20:32:00.127Z,143.73
2019-05-10T20:34:31.561Z,165.40
2019-05-10T20:36:59.771Z,132.40
2019-05-10T20:39:28.071Z,138.23
2019-05-10T20:41:57.071Z,134.73
2019-05-10T20:44:25.292Z,120.47
2019-05-10T20:50:13.878Z,161.40
2019-05-10T20:56:32.773Z,126.57
2019-05-10T20:59:09.153Z,149.73
2019-05-10T21:04:54.875Z,31.93
2019-05-10T21:10:28.421Z,37.57
2019-05-10T21:12:57.097Z,37.03
2019-05-10T21:15:25.255Z,36.10
2019-05-10T21:17:53.520Z,32.00
2019-05-10T21:20:21.892Z,39.30
2019-05-10T21:22:58.873Z,31.13
2019-05-10T21:25:29.746Z,32.87
2019-05-10T21:27:58.124Z,32.33
2019-05-10T21:30:34.084Z,35.93
2019-05-10T21:33:02.367Z,32.57
2019-05-10T21:38:46.445Z,114.80
2019-05-10T21:41:14.880Z,117.33
2019-05-10T21:43:43.152Z,109.00
2019-05-10T21:46:11.419Z,113.17
2019-05-10T21:51:55.759Z,83.33
2019-05-10T21:57:39.214Z,124.43
2019-05-10T22:00:09.325Z,109.37
2019-05-10T22:02:39.448Z,114.43
2019-05-10T22:08:12.771Z,112.10
2019-05-10T22:10:41.018Z,121.63
2019-05-10T22:16:26.251Z,111.10
2019-05-10T22:18:55.991Z,127.30
2019-05-10T22:24:40.192Z,100.67
2019-05-10T22:30:24.651Z,113.13
2019-05-10T22:36:08.291Z,124.07
2019-05-10T22:41:53.067Z,127.37
2019-05-10T22:44:21.656Z,119.13
2019-05-10T22:46:49.991Z,123.60
2019-05-10T22:49:18.237Z,130.67
2019-05-10T22:55:03.184Z,134.93
2019-05-10T23:00:47.235Z,123.80
2019-05-10T23:03:15.748Z,126.17
2019-05-10T23:05:43.987Z,121.30
2019-05-10T23:11:17.087Z,118.97
2019-05-10T23:13:45.478Z,119.33
2019-05-10T23:19:28.708Z,67.07
2019-05-10T23:25:13.100Z,117.50
2019-05-10T23:30:57.775Z,122.23
2019-05-10T23:36:43.201Z,110.03
2019-05-10T23:39:11.479Z,104.43
2019-05-10T23:44:44.331Z,40.17
2019-05-10T23:47:12.751Z,30.60
2019-05-10T23:49:41.338Z,22.30
2019-05-10T23:52:09.670Z,15.43
2019-05-10T23:57:41.690Z,19.93
